createdAt,value
2022-09-22T00:00:02.499Z,7.52
2022-09-22T00:01:02.420Z,7.49
2022-09-22T00:02:03.267Z,7.48
2022-09-22T00:03:03.085Z,7.47
2022-09-22T00:04:03.527Z,7.47
2022-09-22T00:05:03.329Z,7.44
2022-09-22T00:06:03.348Z,7.43
2022-09-22T00:07:03.884Z,7.45
2022-09-22T00:08:03.281Z,7.46
2022-09-22T00:09:03.833Z,7.47
2022-09-22T00:10:03.342Z,7.47
2022-09-22T00:11:03.697Z,7.45
2022-09-22T00:12:03.243Z,7.44
2022-09-22T00:13:02.638Z,7.45
2022-09-22T00:14:03.080Z,7.45
2022-09-22T00:15:02.718Z,7.45
2022-09-22T00:16:03.055Z,7.48
2022-09-22T00:17:03.026Z,7.51
2022-09-22T00:18:03.187Z,7.48
2022-09-22T00:19:03.455Z,7.49
2022-09-22T00:20:03.599Z,7.52
2022-09-22T00:21:03.239Z,7.51
2022-09-22T00:22:03.626Z,7.52
2022-09-22T00:23:03.248Z,7.54
2022-09-22T00:24:03.746Z,7.54
2022-09-22T00:25:03.197Z,7.54
2022-09-22T00:26:03.502Z,7.54
2022-09-22T00:27:03.030Z,7.52
2022-09-22T00:28:02.475Z,7.52
2022-09-22T00:29:02.680Z,7.49
2022-09-22T00:30:02.412Z,7.47
2022-09-22T00:31:02.852Z,7.47
2022-09-22T00:32:07.099Z,7.46
2022-09-22T00:33:03.026Z,7.47
2022-09-22T00:34:03.204Z,7.49
2022-09-22T00:35:02.842Z,7.51
2022-09-22T00:36:03.326Z,7.50
2022-09-22T00:37:03.542Z,7.48
2022-09-22T00:38:03.487Z,7.46
2022-09-22T00:39:03.062Z,7.46
2022-09-22T00:40:03.533Z,7.46
2022-09-22T00:41:03.013Z,7.45
2022-09-22T00:42:03.175Z,7.47
2022-09-22T00:43:03.568Z,7.45
2022-09-22T00:44:03.339Z,7.45
2022-09-22T00:45:03.727Z,7.44
2022-09-22T00:46:04.027Z,7.41
2022-09-22T00:47:02.715Z,7.40
2022-09-22T00:48:03.173Z,7.37
2022-09-22T00:49:02.634Z,7.36
2022-09-22T00:50:03.093Z,7.37
2022-09-22T00:51:02.809Z,7.37
2022-09-22T00:52:03.377Z,7.38
2022-09-22T00:53:03.804Z,7.37
2022-09-22T00:54:03.221Z,7.40
2022-09-22T00:55:03.533Z,7.40
2022-09-22T00:56:03.347Z,7.38
2022-09-22T00:57:02.874Z,7.37
2022-09-22T00:58:03.329Z,7.34
2022-09-22T00:59:03.006Z,7.32
2022-09-22T01:00:02.785Z,7.32
2022-09-22T01:01:03.446Z,7.30
2022-09-22T01:02:02.063Z,7.29
2022-09-22T01:03:01.934Z,7.28
2022-09-22T01:04:02.333Z,7.25
2022-09-22T01:05:02.099Z,7.23
2022-09-22T01:06:01.942Z,7.20
2022-09-22T01:07:02.564Z,7.18
2022-09-22T01:08:02.325Z,7.16
2022-09-22T01:09:02.741Z,7.17
2022-09-22T01:10:02.463Z,7.16
2022-09-22T01:11:02.263Z,7.16
2022-09-22T01:12:01.721Z,7.13
2022-09-22T01:13:02.109Z,7.12
2022-09-22T01:14:01.982Z,7.11
2022-09-22T01:15:01.767Z,7.13
2022-09-22T01:16:02.229Z,7.11
2022-09-22T01:17:02.070Z,7.12
2022-09-22T01:18:01.902Z,7.13
2022-09-22T01:19:01.571Z,7.14
2022-09-22T01:20:01.979Z,7.12
2022-09-22T01:21:01.810Z,7.13
2022-09-22T01:22:02.233Z,7.13
2022-09-22T01:23:02.659Z,7.13
2022-09-22T01:24:02.347Z,7.08
2022-09-22T01:25:02.541Z,7.07
2022-09-22T01:26:02.351Z,7.05
2022-09-22T01:27:01.886Z,7.01
2022-09-22T01:28:01.666Z,7.00
2022-09-22T01:29:02.070Z,7.00
2022-09-22T01:30:01.862Z,7.01
2022-09-22T01:31:01.786Z,7.02
2022-09-22T01:32:02.302Z,7.01
2022-09-22T01:33:02.724Z,7.02
2022-09-22T01:34:02.194Z,7.02
2022-09-22T01:35:02.633Z,7.02
2022-09-22T01:36:02.099Z,6.99
2022-09-22T01:37:02.527Z,6.99
2022-09-22T01:38:02.306Z,6.99
2022-09-22T01:39:02.721Z,7.01
2022-09-22T01:40:02.492Z,7.04
2022-09-22T01:41:02.967Z,7.03
2022-09-22T01:42:02.512Z,7.01
2022-09-22T01:43:02.066Z,7.02
2022-09-22T01:44:02.448Z,6.99
2022-09-22T01:45:01.986Z,6.98
2022-09-22T01:46:02.519Z,7.00
2022-09-22T01:47:02.826Z,6.98
2022-09-22T01:48:02.596Z,6.99
2022-09-22T01:49:03.002Z,6.99
2022-09-22T01:50:02.805Z,7.00
2022-09-22T01:51:03.112Z,7.02
2022-09-22T01:52:02.411Z,6.97
2022-09-22T01:53:02.174Z,6.98
2022-09-22T01:54:02.595Z,6.98
2022-09-22T01:55:02.037Z,6.92
2022-09-22T01:56:02.464Z,6.91
2022-09-22T01:57:01.696Z,6.90
2022-09-22T01:58:01.518Z,6.91
2022-09-22T01:59:01.604Z,6.93
2022-09-22T02:00:02.102Z,6.90
2022-09-22T02:01:01.661Z,6.89
2022-09-22T02:02:02.838Z,6.89
2022-09-22T02:03:02.797Z,6.90
2022-09-22T02:04:02.647Z,6.91
2022-09-22T02:05:03.129Z,6.92
2022-09-22T02:06:03.288Z,6.91
2022-09-22T02:07:02.526Z,6.91
2022-09-22T02:08:02.259Z,6.90
2022-09-22T02:09:02.654Z,6.89
2022-09-22T02:10:02.367Z,6.90
2022-09-22T02:11:02.448Z,6.88
2022-09-22T02:12:02.767Z,6.86
2022-09-22T02:13:02.484Z,6.84
2022-09-22T02:14:02.586Z,6.82
2022-09-22T02:15:03.063Z,6.81
2022-09-22T02:16:02.663Z,6.78
2022-09-22T02:17:03.364Z,6.76
2022-09-22T02:18:02.784Z,6.76
2022-09-22T02:19:12.397Z,6.76
2022-09-22T02:20:03.234Z,6.75
2022-09-22T02:21:02.972Z,6.73
2022-09-22T02:22:02.403Z,6.71
2022-09-22T02:23:02.094Z,6.70
2022-09-22T02:24:02.493Z,6.68
2022-09-22T02:25:02.319Z,6.64
2022-09-22T02:26:02.042Z,6.64
2022-09-22T02:27:02.459Z,6.61
2022-09-22T02:28:02.029Z,6.58
2022-09-22T02:29:02.048Z,6.57
2022-09-22T02:30:02.449Z,6.57
2022-09-22T02:31:20.444Z,6.55
2022-09-22T02:32:03.144Z,6.55
2022-09-22T02:33:02.876Z,6.55
2022-09-22T02:34:02.654Z,6.56
2022-09-22T02:35:03.042Z,6.57
2022-09-22T02:36:02.662Z,6.57
2022-09-22T02:37:03.143Z,6.55
2022-09-22T02:38:02.878Z,6.52
2022-09-22T02:39:03.213Z,6.50
2022-09-22T02:40:02.953Z,6.50
2022-09-22T02:41:03.247Z,6.50
2022-09-22T02:42:03.282Z,6.50
2022-09-22T02:43:03.269Z,6.49
2022-09-22T02:44:02.732Z,6.47
2022-09-22T02:45:03.235Z,6.46
2022-09-22T02:46:02.949Z,6.43
2022-09-22T02:47:02.549Z,6.45
2022-09-22T02:48:02.271Z,6.42
2022-09-22T02:49:02.102Z,6.41
2022-09-22T02:50:02.102Z,6.39
2022-09-22T02:51:02.615Z,6.40
2022-09-22T02:52:02.759Z,6.41
2022-09-22T02:53:02.504Z,6.39
2022-09-22T02:54:02.914Z,6.40
2022-09-22T02:55:02.303Z,6.40
2022-09-22T02:56:02.635Z,6.40
2022-09-22T02:57:02.860Z,6.38
2022-09-22T02:58:02.664Z,6.36
2022-09-22T02:59:02.555Z,6.36
2022-09-22T03:00:02.941Z,6.37
2022-09-22T03:01:02.773Z,6.36
2022-09-22T03:02:03.198Z,6.35
2022-09-22T03:03:02.919Z,6.36
2022-09-22T03:04:02.663Z,6.35
2022-09-22T03:05:03.252Z,6.35
2022-09-22T03:06:03.091Z,6.33
2022-09-22T03:07:02.591Z,6.33
2022-09-22T03:08:02.348Z,6.33
2022-09-22T03:09:02.007Z,6.31
2022-09-22T03:10:02.135Z,6.33
2022-09-22T03:11:02.562Z,6.36
2022-09-22T03:12:02.710Z,6.38
2022-09-22T03:13:16.560Z,6.37
2022-09-22T03:14:02.414Z,6.36
2022-09-22T03:15:02.381Z,6.35
2022-09-22T03:16:02.830Z,6.38
2022-09-22T03:17:03.136Z,6.36
2022-09-22T03:18:02.710Z,6.35
2022-09-22T03:19:02.831Z,6.35
2022-09-22T03:20:02.514Z,6.35
2022-09-22T03:21:02.934Z,6.34
2022-09-22T03:22:02.796Z,6.33
2022-09-22T03:23:02.967Z,6.32
2022-09-22T03:24:02.731Z,6.31
2022-09-22T03:25:03.151Z,6.28
2022-09-22T03:26:02.655Z,6.28
2022-09-22T03:27:02.811Z,6.27
2022-09-22T03:28:02.601Z,6.27
2022-09-22T03:29:02.639Z,6.26
2022-09-22T03:30:02.342Z,6.24
2022-09-22T03:31:02.214Z,6.23
2022-09-22T03:32:01.941Z,6.23
2022-09-22T03:33:02.412Z,6.21
2022-09-22T03:34:02.251Z,6.21
2022-09-22T03:35:01.960Z,6.18
2022-09-22T03:36:02.387Z,6.16
2022-09-22T03:37:01.861Z,6.14
2022-09-22T03:38:02.276Z,6.13
2022-09-22T03:39:01.969Z,6.12
2022-09-22T03:40:02.325Z,6.11
2022-09-22T03:41:02.060Z,6.08
2022-09-22T03:42:02.450Z,6.04
2022-09-22T03:43:02.945Z,6.01
2022-09-22T03:44:02.550Z,5.98
2022-09-22T03:45:03.082Z,5.98
2022-09-22T03:46:02.690Z,5.97
2022-09-22T03:47:02.532Z,5.97
2022-09-22T03:48:02.988Z,5.97
2022-09-22T03:49:02.839Z,5.96
2022-09-22T03:50:02.663Z,5.96
2022-09-22T03:51:03.145Z,5.98
2022-09-22T03:52:02.550Z,6.01
2022-09-22T03:53:02.961Z,6.00
2022-09-22T03:54:02.678Z,5.99
2022-09-22T03:55:03.115Z,5.98
2022-09-22T03:56:02.791Z,5.97
2022-09-22T03:57:02.271Z,5.96
2022-09-22T03:58:02.619Z,5.95
2022-09-22T03:59:02.611Z,5.95
2022-09-22T04:00:02.352Z,5.95
2022-09-22T04:01:02.351Z,5.95
2022-09-22T04:02:02.891Z,5.93
2022-09-22T04:03:02.710Z,5.93
2022-09-22T04:04:02.991Z,5.92
2022-09-22T04:05:02.670Z,5.92
2022-09-22T04:06:03.100Z,5.90
2022-09-22T04:07:07.087Z,5.90
2022-09-22T04:08:02.257Z,5.88
2022-09-22T04:09:02.704Z,5.86
2022-09-22T04:10:02.305Z,5.86
2022-09-22T04:11:02.581Z,5.87
2022-09-22T04:12:02.282Z,5.87
2022-09-22T04:13:02.453Z,5.85
2022-09-22T04:14:02.313Z,5.84
2022-09-22T04:15:02.769Z,5.84
2022-09-22T04:16:02.247Z,5.84
2022-09-22T04:17:02.615Z,5.84
2022-09-22T04:18:02.935Z,5.84
2022-09-22T04:19:02.969Z,5.85
2022-09-22T04:20:02.688Z,5.85
2022-09-22T04:21:03.035Z,5.86
2022-09-22T04:22:02.743Z,5.85
2022-09-22T04:23:03.143Z,5.83
2022-09-22T04:24:02.869Z,5.83
2022-09-22T04:25:03.274Z,5.81
2022-09-22T04:26:02.734Z,5.79
2022-09-22T04:27:19.054Z,5.78
2022-09-22T04:28:05.581Z,5.76
2022-09-22T04:29:02.243Z,5.74
2022-09-22T04:30:02.672Z,5.73
2022-09-22T04:31:02.231Z,5.73
2022-09-22T04:32:02.649Z,5.73
2022-09-22T04:33:02.991Z,5.71
2022-09-22T04:34:06.910Z,5.74
2022-09-22T04:35:03.015Z,5.72
2022-09-22T04:36:02.710Z,5.71
2022-09-22T04:37:03.189Z,5.70
2022-09-22T04:38:03.574Z,5.69
2022-09-22T04:39:02.994Z,5.69
2022-09-22T04:40:03.430Z,5.71
2022-09-22T04:41:03.161Z,5.72
2022-09-22T04:42:02.485Z,5.72
2022-09-22T04:43:02.909Z,5.74
2022-09-22T04:44:02.718Z,5.73
2022-09-22T04:45:02.493Z,5.72
2022-09-22T04:46:03.069Z,5.70
2022-09-22T04:47:02.422Z,5.69
2022-09-22T04:48:02.575Z,5.65
2022-09-22T04:49:02.494Z,5.62
2022-09-22T04:50:02.233Z,5.60
2022-09-22T04:51:02.047Z,5.59
2022-09-22T04:52:02.357Z,5.57
2022-09-22T04:53:02.262Z,5.56
2022-09-22T04:54:02.701Z,5.56
2022-09-22T04:55:02.495Z,5.56
2022-09-22T04:56:02.644Z,5.56
2022-09-22T04:57:03.117Z,5.55
2022-09-22T04:58:02.992Z,5.55
2022-09-22T04:59:03.002Z,5.54
2022-09-22T05:00:02.836Z,5.54
2022-09-22T05:01:03.250Z,5.53
2022-09-22T05:02:02.769Z,5.51
2022-09-22T05:03:03.031Z,5.51
2022-09-22T05:04:02.563Z,5.50
2022-09-22T05:05:03.013Z,5.50
2022-09-22T05:06:02.641Z,5.48
2022-09-22T05:07:03.269Z,5.46
2022-09-22T05:08:03.075Z,5.46
2022-09-22T05:09:02.974Z,5.43
2022-09-22T05:10:02.843Z,5.42
2022-09-22T05:11:03.400Z,5.40
2022-09-22T05:12:02.971Z,5.40
2022-09-22T05:13:02.861Z,5.41
2022-09-22T05:14:02.642Z,5.42
2022-09-22T05:15:03.127Z,5.45
2022-09-22T05:16:03.239Z,5.44
2022-09-22T05:17:02.651Z,5.43
2022-09-22T05:18:02.650Z,5.42
2022-09-22T05:19:02.227Z,5.41
2022-09-22T05:20:02.729Z,5.41
2022-09-22T05:21:02.275Z,5.41
2022-09-22T05:22:02.912Z,5.43
2022-09-22T05:23:02.598Z,5.41
2022-09-22T05:24:02.303Z,5.39
2022-09-22T05:25:02.221Z,5.38
2022-09-22T05:26:02.736Z,5.37
2022-09-22T05:27:03.257Z,5.35
2022-09-22T05:28:03.096Z,5.34
2022-09-22T05:29:03.118Z,5.34
2022-09-22T05:30:02.978Z,5.33
2022-09-22T05:31:02.809Z,5.33
2022-09-22T05:32:03.471Z,5.35
2022-09-22T05:33:03.422Z,5.35
2022-09-22T05:34:03.259Z,5.33
2022-09-22T05:35:02.854Z,5.32
2022-09-22T05:36:03.117Z,5.33
2022-09-22T05:37:02.758Z,5.32
2022-09-22T05:38:02.350Z,5.35
2022-09-22T05:39:02.799Z,5.37
2022-09-22T05:40:02.501Z,5.37
2022-09-22T05:41:02.282Z,5.35
2022-09-22T05:42:02.269Z,5.34
2022-09-22T05:43:02.515Z,5.32
2022-09-22T05:44:02.565Z,5.34
2022-09-22T05:45:02.511Z,5.33
2022-09-22T05:46:02.522Z,5.33
2022-09-22T05:47:03.150Z,5.32
2022-09-22T05:48:02.544Z,5.32
2022-09-22T05:49:03.112Z,5.32
2022-09-22T05:50:02.866Z,5.31
2022-09-22T05:51:02.587Z,5.31
2022-09-22T05:52:03.394Z,5.32
2022-09-22T05:53:02.993Z,5.33
2022-09-22T05:54:02.810Z,5.32
2022-09-22T05:55:03.338Z,5.33
2022-09-22T05:56:03.021Z,5.32
2022-09-22T05:57:02.606Z,5.32
2022-09-22T05:58:02.319Z,5.32
2022-09-22T05:59:02.185Z,5.33
2022-09-22T06:00:02.042Z,5.32
2022-09-22T06:01:02.136Z,5.34
2022-09-22T06:02:13.366Z,5.35
2022-09-22T06:03:02.127Z,5.36
2022-09-22T06:04:02.231Z,5.36
2022-09-22T06:05:02.128Z,5.39
2022-09-22T06:06:02.674Z,5.41
2022-09-22T06:07:02.966Z,5.43
2022-09-22T06:08:02.527Z,5.43
2022-09-22T06:09:02.747Z,5.43
2022-09-22T06:10:02.590Z,5.44
2022-09-22T06:11:02.430Z,5.44
2022-09-22T06:12:02.954Z,5.44
2022-09-22T06:13:02.304Z,5.43
2022-09-22T06:14:02.822Z,5.44
2022-09-22T06:15:02.595Z,5.44
2022-09-22T06:16:02.509Z,5.46
2022-09-22T06:17:02.352Z,5.46
2022-09-22T06:18:02.597Z,5.46
2022-09-22T06:19:02.458Z,5.48
2022-09-22T06:20:02.892Z,5.48
2022-09-22T06:21:02.768Z,5.48
2022-09-22T06:22:02.021Z,5.49
2022-09-22T06:23:01.908Z,5.48
2022-09-22T06:24:01.911Z,5.47
2022-09-22T06:25:01.924Z,5.48
2022-09-22T06:26:02.455Z,5.50
2022-09-22T06:27:02.418Z,5.51
2022-09-22T06:28:02.390Z,5.53
2022-09-22T06:29:02.712Z,5.55
2022-09-22T06:30:02.578Z,5.55
2022-09-22T06:31:02.486Z,5.55
2022-09-22T06:32:02.186Z,5.56
2022-09-22T06:33:02.163Z,5.58
2022-09-22T06:34:05.498Z,5.60
2022-09-22T06:35:02.630Z,5.61
2022-09-22T06:36:02.293Z,5.62
2022-09-22T06:37:02.152Z,5.65
2022-09-22T06:38:02.663Z,5.69
2022-09-22T06:39:02.379Z,5.73
2022-09-22T06:40:02.370Z,5.75
2022-09-22T06:41:02.334Z,5.76
2022-09-22T06:42:02.188Z,5.78
2022-09-22T06:43:02.611Z,5.80
2022-09-22T06:44:02.677Z,5.83
2022-09-22T06:45:02.442Z,5.86
2022-09-22T06:46:02.466Z,5.90
2022-09-22T06:47:02.375Z,5.96
2022-09-22T06:48:06.311Z,5.99
2022-09-22T06:49:02.413Z,6.07
2022-09-22T06:50:02.392Z,6.13
2022-09-22T06:51:02.365Z,6.18
2022-09-22T06:52:02.055Z,6.25
2022-09-22T06:53:02.022Z,6.35
2022-09-22T06:54:02.091Z,6.43
2022-09-22T06:55:02.166Z,6.52
2022-09-22T06:56:02.119Z,6.60
2022-09-22T06:57:02.154Z,6.68
2022-09-22T06:58:02.801Z,6.78
2022-09-22T06:59:10.622Z,6.86
2022-09-22T07:00:02.773Z,6.94
2022-09-22T07:01:05.192Z,7.03
2022-09-22T07:02:02.674Z,7.11
2022-09-22T07:03:02.983Z,7.22
2022-09-22T07:04:02.648Z,7.30
2022-09-22T07:05:02.612Z,7.38
2022-09-22T07:06:02.467Z,7.48
2022-09-22T07:07:02.171Z,7.56
2022-09-22T07:08:02.055Z,7.66
2022-09-22T07:09:02.522Z,7.75
2022-09-22T07:10:02.405Z,7.84
2022-09-22T07:11:02.568Z,7.95
2022-09-22T07:12:02.260Z,8.04
2022-09-22T07:13:02.287Z,8.13
2022-09-22T07:14:02.296Z,8.23
2022-09-22T07:15:02.082Z,8.33
2022-09-22T07:16:02.523Z,8.41
2022-09-22T07:17:02.877Z,8.49
2022-09-22T07:18:02.496Z,8.58
2022-09-22T07:19:02.578Z,8.66
2022-09-22T07:20:02.613Z,8.73
2022-09-22T07:21:02.780Z,8.82
2022-09-22T07:22:02.585Z,8.89
2022-09-22T07:23:02.344Z,8.99
2022-09-22T07:24:02.756Z,9.06
2022-09-22T07:25:02.701Z,9.13
2022-09-22T07:26:02.492Z,9.21
2022-09-22T07:27:02.621Z,9.26
2022-09-22T07:28:02.751Z,9.34
2022-09-22T07:29:02.847Z,9.42
2022-09-22T07:30:02.347Z,9.51
2022-09-22T07:31:02.386Z,9.60
2022-09-22T07:32:01.895Z,9.67
2022-09-22T07:33:01.962Z,9.76
2022-09-22T07:34:01.987Z,9.85
2022-09-22T07:35:02.217Z,9.92
2022-09-22T07:36:01.806Z,10.01
2022-09-22T07:37:02.533Z,10.07
2022-09-22T07:38:02.719Z,10.15
2022-09-22T07:39:02.653Z,10.23
2022-09-22T07:40:02.621Z,10.30
2022-09-22T07:41:02.314Z,10.34
2022-09-22T07:42:02.096Z,10.43
2022-09-22T07:43:02.125Z,10.52
2022-09-22T07:44:02.087Z,10.56
2022-09-22T07:45:01.937Z,10.62
2022-09-22T07:46:02.178Z,10.68
2022-09-22T07:47:02.777Z,10.73
2022-09-22T07:48:02.770Z,10.78
2022-09-22T07:49:02.611Z,10.83
2022-09-22T07:50:02.555Z,10.88
2022-09-22T07:51:02.405Z,10.95
2022-09-22T07:52:02.190Z,11.01
2022-09-22T07:53:02.249Z,11.06
2022-09-22T07:54:02.198Z,11.13
2022-09-22T07:55:02.065Z,11.19
2022-09-22T07:56:02.454Z,11.26
2022-09-22T07:57:01.895Z,11.30
2022-09-22T07:58:02.118Z,11.37
2022-09-22T07:59:01.938Z,11.40
2022-09-22T08:00:01.774Z,11.46
2022-09-22T08:01:01.948Z,11.51
2022-09-22T08:02:02.706Z,11.59
2022-09-22T08:03:02.801Z,11.66
2022-09-22T08:04:02.814Z,11.69
2022-09-22T08:05:02.865Z,11.73
2022-09-22T08:06:06.115Z,11.78
2022-09-22T08:07:02.481Z,11.82
2022-09-22T08:08:02.503Z,11.88
2022-09-22T08:09:02.490Z,11.94
2022-09-22T08:10:02.497Z,12.02
2022-09-22T08:11:02.421Z,12.08
2022-09-22T08:12:02.068Z,12.14
2022-09-22T08:13:01.981Z,12.18
2022-09-22T08:14:01.801Z,12.23
2022-09-22T08:15:01.789Z,12.29
2022-09-22T08:16:01.967Z,12.33
2022-09-22T08:17:02.692Z,12.38
2022-09-22T08:18:02.755Z,12.43
2022-09-22T08:19:02.766Z,12.50
2022-09-22T08:20:02.749Z,12.56
2022-09-22T08:21:02.690Z,12.61
2022-09-22T08:22:02.133Z,12.63
2022-09-22T08:23:01.931Z,12.67
2022-09-22T08:24:01.943Z,12.68
2022-09-22T08:25:02.159Z,12.72
2022-09-22T08:26:01.868Z,12.76
2022-09-22T08:27:02.615Z,12.79
2022-09-22T08:28:02.284Z,12.85
2022-09-22T08:29:02.282Z,12.92
2022-09-22T08:30:02.108Z,12.99
2022-09-22T08:31:02.164Z,13.05
2022-09-22T08:32:02.270Z,13.10
2022-09-22T08:33:02.069Z,13.16
2022-09-22T08:34:02.235Z,13.23
2022-09-22T08:35:01.917Z,13.29
2022-09-22T08:36:01.793Z,13.34
2022-09-22T08:37:02.453Z,13.40
2022-09-22T08:38:02.357Z,13.46
2022-09-22T08:39:02.211Z,13.50
2022-09-22T08:40:02.351Z,13.57
2022-09-22T08:41:01.969Z,13.65
2022-09-22T08:42:01.536Z,13.69
2022-09-22T08:43:02.142Z,13.71
2022-09-22T08:44:02.201Z,13.75
2022-09-22T08:45:01.990Z,13.80
2022-09-22T08:46:01.981Z,13.84
2022-09-22T08:47:02.651Z,13.85
2022-09-22T08:48:02.524Z,13.93
2022-09-22T08:49:02.594Z,13.97
2022-09-22T08:50:02.635Z,14.01
2022-09-22T08:51:02.584Z,14.05
2022-09-22T08:52:02.115Z,14.07
2022-09-22T08:53:02.259Z,14.10
2022-09-22T08:54:06.924Z,14.15
2022-09-22T08:55:02.729Z,14.21
2022-09-22T08:56:02.477Z,14.27
2022-09-22T08:57:03.129Z,14.34
2022-09-22T08:58:02.909Z,14.41
2022-09-22T08:59:02.610Z,14.48
2022-09-22T09:00:03.007Z,14.51
2022-09-22T09:01:02.765Z,14.58
2022-09-22T09:02:02.048Z,14.64
2022-09-22T09:03:02.028Z,14.66
2022-09-22T09:04:02.000Z,14.73
2022-09-22T09:05:01.992Z,14.77
2022-09-22T09:06:02.630Z,14.80
2022-09-22T09:07:02.180Z,14.83
2022-09-22T09:08:02.528Z,14.85
2022-09-22T09:09:05.025Z,14.86
2022-09-22T09:10:02.266Z,14.91
2022-09-22T09:11:02.596Z,14.92
2022-09-22T09:12:02.623Z,14.99
2022-09-22T09:13:03.135Z,15.01
2022-09-22T09:14:02.805Z,15.05
2022-09-22T09:15:02.651Z,15.07
2022-09-22T09:16:02.666Z,15.13
2022-09-22T09:17:02.078Z,15.19
2022-09-22T09:18:02.508Z,15.25
2022-09-22T09:19:02.544Z,15.27
2022-09-22T09:20:02.440Z,15.34
2022-09-22T09:21:02.458Z,15.35
2022-09-22T09:22:02.390Z,15.42
2022-09-22T09:23:02.374Z,15.48
2022-09-22T09:26:02.843Z,15.66
2022-09-22T09:27:01.922Z,15.75
2022-09-22T09:28:02.082Z,15.78
2022-09-22T09:29:06.021Z,15.86
2022-09-22T09:30:02.172Z,15.92
2022-09-22T09:31:02.394Z,15.98
2022-09-22T09:32:02.777Z,16.05
2022-09-22T09:33:02.491Z,16.12
2022-09-22T09:34:02.403Z,16.21
2022-09-22T09:35:02.281Z,16.29
2022-09-22T09:36:02.274Z,16.37
2022-09-22T09:37:02.072Z,16.46
2022-09-22T09:38:02.289Z,16.56
2022-09-22T09:39:02.202Z,16.65
2022-09-22T09:40:01.936Z,16.70
2022-09-22T09:41:01.889Z,16.76
2022-09-22T09:42:02.544Z,16.82
2022-09-22T09:43:03.377Z,16.91
2022-09-22T09:44:02.699Z,16.98
2022-09-22T09:45:02.762Z,17.04
2022-09-22T09:46:03.029Z,17.10
2022-09-22T09:47:02.806Z,17.17
2022-09-22T09:48:03.110Z,17.24
2022-09-22T09:49:03.121Z,17.31
2022-09-22T09:50:03.061Z,17.37
2022-09-22T09:51:02.890Z,17.46
2022-09-22T09:52:02.326Z,17.55
2022-09-22T09:53:02.347Z,17.62
2022-09-22T09:54:02.377Z,17.69
2022-09-22T09:55:02.330Z,17.75
2022-09-22T09:56:02.257Z,17.81
2022-09-22T09:57:02.896Z,17.89
2022-09-22T09:58:02.898Z,17.98
2022-09-22T09:59:02.933Z,18.02
2022-09-22T10:00:02.853Z,18.07
2022-09-22T10:01:02.869Z,18.14
2022-09-22T10:02:02.265Z,18.20
2022-09-22T10:03:02.252Z,18.28
2022-09-22T10:04:02.263Z,18.35
2022-09-22T10:05:02.801Z,18.40
2022-09-22T10:06:02.233Z,18.48
2022-09-22T10:07:02.465Z,18.52
2022-09-22T10:08:02.380Z,18.55
2022-09-22T10:09:02.458Z,18.61
2022-09-22T10:10:02.350Z,18.59
2022-09-22T10:11:02.492Z,18.50
2022-09-22T10:12:02.819Z,18.55
2022-09-22T10:13:02.779Z,18.56
2022-09-22T10:14:02.778Z,18.61
2022-09-22T10:15:02.775Z,18.65
2022-09-22T10:16:02.884Z,18.70
2022-09-22T10:17:02.440Z,18.76
2022-09-22T10:18:02.431Z,18.80
2022-09-22T10:19:02.300Z,18.81
2022-09-22T10:20:02.291Z,18.86
2022-09-22T10:21:02.337Z,18.89
2022-09-22T10:22:03.037Z,18.95
2022-09-22T10:23:02.950Z,19.00
2022-09-22T10:24:02.882Z,19.05
2022-09-22T10:25:02.810Z,19.08
2022-09-22T10:26:02.803Z,19.15
2022-09-22T10:27:05.296Z,19.20
2022-09-22T10:28:02.387Z,19.24
2022-09-22T10:29:02.414Z,19.29
2022-09-22T10:30:02.521Z,19.33
2022-09-22T10:31:02.394Z,19.40
2022-09-22T10:32:03.090Z,19.42
2022-09-22T10:33:03.113Z,19.47
2022-09-22T10:34:02.613Z,19.49
2022-09-22T10:35:02.686Z,19.52
2022-09-22T10:36:03.854Z,19.54
2022-09-22T10:37:02.463Z,19.55
2022-09-22T10:38:02.432Z,19.58
2022-09-22T10:39:02.592Z,19.61
2022-09-22T10:40:02.576Z,19.63
2022-09-22T10:41:02.451Z,19.65
2022-09-22T10:42:03.013Z,19.70
2022-09-22T10:43:02.642Z,19.73
2022-09-22T10:44:15.479Z,19.74
2022-09-22T10:45:03.096Z,19.77
2022-09-22T10:46:03.214Z,19.81
2022-09-22T10:47:02.784Z,19.84
2022-09-22T10:48:02.634Z,19.90
2022-09-22T10:49:02.631Z,19.95
2022-09-22T10:50:02.648Z,19.98
2022-09-22T10:51:02.621Z,20.01
2022-09-22T10:52:03.236Z,20.05
2022-09-22T10:53:02.859Z,20.09
2022-09-22T10:54:02.736Z,20.12
2022-09-22T10:55:03.183Z,20.18
2022-09-22T10:56:03.129Z,20.18
2022-09-22T10:57:02.740Z,20.24
2022-09-22T10:58:02.502Z,20.26
2022-09-22T10:59:02.529Z,20.21
2022-09-22T11:00:02.556Z,20.08
2022-09-22T11:01:02.516Z,20.09
2022-09-22T11:02:03.116Z,20.10
2022-09-22T11:03:02.818Z,20.07
2022-09-22T11:04:03.146Z,20.01
2022-09-22T11:05:02.961Z,20.04
2022-09-22T11:06:02.962Z,20.08
2022-09-22T11:07:03.661Z,20.13
2022-09-22T11:08:03.431Z,20.20
2022-09-22T11:09:03.605Z,20.26
2022-09-22T11:10:03.231Z,20.31
2022-09-22T11:11:03.531Z,20.35
2022-09-22T11:12:03.843Z,20.39
2022-09-22T11:13:03.324Z,20.45
2022-09-22T11:14:03.322Z,20.50
2022-09-22T11:15:03.479Z,20.56
2022-09-22T11:16:03.337Z,20.58
2022-09-22T11:17:02.398Z,20.63
2022-09-22T11:18:02.428Z,20.67
2022-09-22T11:19:02.464Z,20.58
2022-09-22T11:20:02.481Z,20.51
2022-09-22T11:21:02.427Z,20.54
2022-09-22T11:22:02.466Z,20.57
2022-09-22T11:23:02.750Z,20.52
2022-09-22T11:24:02.734Z,20.50
2022-09-22T11:25:02.705Z,20.52
2022-09-22T11:26:02.497Z,20.57
2022-09-22T11:27:02.970Z,20.58
2022-09-22T11:28:03.451Z,20.62
2022-09-22T11:29:03.361Z,20.67
2022-09-22T11:30:10.526Z,20.70
2022-09-22T11:31:03.462Z,20.75
2022-09-22T11:32:03.416Z,20.82
2022-09-22T11:33:02.432Z,20.88
2022-09-22T11:34:02.676Z,20.87
2022-09-22T11:35:02.693Z,20.82
2022-09-22T11:36:02.553Z,20.70
2022-09-22T11:37:02.592Z,20.71
2022-09-22T11:38:03.171Z,20.71
2022-09-22T11:39:03.156Z,20.63
2022-09-22T11:40:03.340Z,20.63
2022-09-22T11:41:03.103Z,20.69
2022-09-22T11:42:03.012Z,20.75
2022-09-22T11:43:04.533Z,20.82
2022-09-22T11:44:03.822Z,20.87
2022-09-22T11:45:03.496Z,20.92
2022-09-22T11:46:03.592Z,20.97
2022-09-22T11:47:03.389Z,21.00
2022-09-22T11:48:02.580Z,21.10
2022-09-22T11:49:03.190Z,21.19
2022-09-22T11:50:02.819Z,21.28
2022-09-22T11:51:02.875Z,21.39
2022-09-22T11:52:03.128Z,21.49
2022-09-22T11:53:03.166Z,21.60
2022-09-22T11:54:03.109Z,21.69
2022-09-22T11:55:03.050Z,21.79
2022-09-22T11:56:03.219Z,21.88
2022-09-22T11:57:03.199Z,21.98
2022-09-22T11:58:03.245Z,22.05
2022-09-22T11:59:03.328Z,22.12
2022-09-22T12:00:03.410Z,22.17
2022-09-22T12:01:03.403Z,22.24
2022-09-22T12:02:03.255Z,22.25
2022-09-22T12:03:03.771Z,22.28
2022-09-22T12:04:03.578Z,22.33
2022-09-22T12:05:03.270Z,22.32
2022-09-22T12:06:03.141Z,22.31
2022-09-22T12:07:03.483Z,22.31
2022-09-22T12:08:02.819Z,22.28
2022-09-22T12:09:02.572Z,22.30
2022-09-22T12:10:02.346Z,22.29
2022-09-22T12:11:02.795Z,22.26
2022-09-22T12:12:02.570Z,22.21
2022-09-22T12:13:02.424Z,22.17
2022-09-22T12:14:02.325Z,22.11
2022-09-22T12:15:02.352Z,22.06
2022-09-22T12:16:02.382Z,22.01
2022-09-22T12:17:02.486Z,22.02
2022-09-22T12:18:03.038Z,21.98
2022-09-22T12:19:03.073Z,21.95
2022-09-22T12:20:03.038Z,21.92
2022-09-22T12:21:03.376Z,21.94
2022-09-22T12:22:03.125Z,21.96
2022-09-22T12:23:02.924Z,22.02
2022-09-22T12:24:02.975Z,22.10
2022-09-22T12:25:02.607Z,22.20
2022-09-22T12:26:02.825Z,22.27
2022-09-22T12:27:02.823Z,22.40
2022-09-22T12:28:03.520Z,22.47
2022-09-22T12:29:03.280Z,22.55
2022-09-22T12:30:03.322Z,22.62
2022-09-22T12:31:03.413Z,22.64
2022-09-22T12:32:03.458Z,22.68
2022-09-22T12:33:03.147Z,22.77
2022-09-22T12:34:02.920Z,22.86
2022-09-22T12:35:02.858Z,22.95
2022-09-22T12:36:03.298Z,23.04
2022-09-22T12:37:03.408Z,23.16
2022-09-22T12:38:02.917Z,23.27
2022-09-22T12:39:02.858Z,23.34
2022-09-22T12:40:02.951Z,23.45
2022-09-22T12:41:02.732Z,23.55
2022-09-22T12:42:02.617Z,23.65
2022-09-22T12:43:03.307Z,23.72
2022-09-22T12:44:03.335Z,23.78
2022-09-22T12:45:03.213Z,23.85
2022-09-22T12:46:03.125Z,23.93
2022-09-22T12:47:03.272Z,24.01
2022-09-22T12:48:04.791Z,24.10
2022-09-22T12:49:02.928Z,24.15
2022-09-22T12:50:02.878Z,24.24
2022-09-22T12:51:02.834Z,24.32
2022-09-22T12:52:02.860Z,24.41
2022-09-22T12:53:03.251Z,24.46
2022-09-22T12:54:03.287Z,24.50
2022-09-22T12:55:03.423Z,24.56
2022-09-22T12:56:03.425Z,24.62
2022-09-22T12:57:03.483Z,24.67
2022-09-22T12:58:03.113Z,24.74
2022-09-22T12:59:03.058Z,24.77
2022-09-22T13:00:02.954Z,24.81
2022-09-22T13:01:03.006Z,24.88
2022-09-22T13:02:03.216Z,24.90
2022-09-22T13:03:02.189Z,24.91
2022-09-22T13:04:02.475Z,24.96
2022-09-22T13:05:02.737Z,24.97
2022-09-22T13:06:02.360Z,24.98
2022-09-22T13:07:02.636Z,25.01
2022-09-22T13:08:03.286Z,24.98
2022-09-22T13:09:03.026Z,25.03